Time;durP1;ratioP1;P1;durP2;ratioP2;P2;SDS_P1;SDS_P2;PMS_P1;PMS_P2;Temp;Humidity;BMP_temperature;BMP_pressure;BME280_temperature;BME280_humidity;BME280_pressure;Samples;Min_cycle;Max_cycle;Signal;HPM_P1;HPM_P2
2021/12/12 00:03:16;;;;;;;7.87;4.40;;;5.70;99.90;;;;;;5038192;28;20487;-86
2021/12/12 00:05:36;;;;;;;5.17;4.40;;;5.70;99.90;;;;;;5034581;28;20498;-85
2021/12/12 00:08:32;;;;;;;8.23;4.53;;;5.70;99.90;;;;;;5031667;28;20466;-89
2021/12/12 00:11:09;;;;;;;6.27;4.43;;;5.80;99.90;;;;;;5047058;28;20475;-85
2021/12/12 00:14:04;;;;;;;3.10;2.90;;;5.80;99.90;;;;;;5034661;28;20448;-84
2021/12/12 00:17:04;;;;;;;5.70;4.03;;;5.70;99.90;;;;;;5023206;28;20819;-86
2021/12/12 00:19:31;;;;;;;8.63;4.80;;;5.60;99.90;;;;;;5027182;28;20482;-87
2021/12/12 00:22:05;;;;;;;8.97;4.53;;;5.60;99.90;;;;;;5031287;28;20485;-87
2021/12/12 00:24:58;;;;;;;6.93;4.57;;;5.60;99.90;;;;;;5021988;28;21670;-89
2021/12/12 00:28:00;;;;;;;6.60;4.43;;;5.50;99.90;;;;;;5012855;28;20436;-88
2021/12/12 00:30:31;;;;;;;6.87;4.27;;;5.50;99.90;;;;;;5017637;28;20545;-93
2021/12/12 00:33:14;;;;;;;8.13;4.37;;;5.50;99.90;;;;;;5040274;28;20465;-94
2021/12/12 00:35:49;;;;;;;5.77;3.83;;;5.60;99.90;;;;;;5030998;28;21031;-90
2021/12/12 00:38:26;;;;;;;5.73;3.73;;;5.60;99.90;;;;;;5024079;28;20456;-92
2021/12/12 00:41:05;;;;;;;6.47;4.00;;;5.60;99.90;;;;;;5023467;28;20472;-90
2021/12/12 00:44:12;;;;;;;9.83;4.23;;;5.60;99.90;;;;;;5032645;28;21448;-88
2021/12/12 00:46:48;;;;;;;6.37;4.07;;;5.50;99.90;;;;;;5043431;28;20525;-92
2021/12/12 00:49:16;;;;;;;5.83;4.33;;;5.50;99.90;;;;;;5035803;28;20454;-93
2021/12/12 00:51:47;;;;;;;8.53;4.17;;;5.50;99.90;;;;;;5040086;28;20528;-93
2021/12/12 00:54:30;;;;;;;8.17;4.17;;;5.70;99.90;;;;;;5051562;28;20494;-93
2021/12/12 00:57:10;;;;;;;9.60;4.17;;;5.70;99.90;;;;;;5034083;28;20450;-92
2021/12/12 00:59:37;;;;;;;6.37;3.73;;;5.70;99.90;;;;;;5023977;28;20524;-91
2021/12/12 01:02:08;;;;;;;6.40;4.40;;;5.80;99.90;;;;;;5044418;28;20458;-92
2021/12/12 01:04:54;;;;;;;5.53;3.20;;;5.80;99.90;;;;;;5028006;28;21052;-92
2021/12/12 01:07:26;;;;;;;6.00;3.50;;;5.80;99.90;;;;;;5026740;28;20471;-92
2021/12/12 01:10:23;;;;;;;6.83;3.90;;;5.80;99.90;;;;;;5041630;28;20461;-92
2021/12/12 01:12:52;;;;;;;7.80;3.40;;;5.90;99.90;;;;;;5016121;28;20576;-88
2021/12/12 01:15:39;;;;;;;8.03;3.60;;;5.90;99.90;;;;;;5027806;28;20470;-88
2021/12/12 01:18:13;;;;;;;8.67;3.37;;;5.90;99.90;;;;;;5012796;28;20531;-87
2021/12/12 01:20:51;;;;;;;4.50;3.80;;;5.90;99.90;;;;;;5019787;28;20458;-91
2021/12/12 01:23:41;;;;;;;4.43;3.23;;;5.90;99.90;;;;;;5019108;28;20487;-91
2021/12/12 01:26:09;;;;;;;7.80;4.30;;;5.90;99.90;;;;;;5034872;28;20500;-89
2021/12/12 01:28:39;;;;;;;5.00;3.67;;;5.80;99.90;;;;;;5018611;28;20552;-90
2021/12/12 01:31:10;;;;;;;6.57;3.83;;;5.80;99.90;;;;;;5033253;28;20472;-89
2021/12/12 01:33:46;;;;;;;8.70;4.37;;;5.90;99.90;;;;;;5031321;28;20683;-89
2021/12/12 01:36:27;;;;;;;9.60;4.30;;;6.00;99.90;;;;;;5027954;28;20489;-91
2021/12/12 01:38:58;;;;;;;6.83;4.03;;;6.00;99.90;;;;;;5024416;28;20462;-91
2021/12/12 01:41:31;;;;;;;6.87;3.20;;;6.00;99.90;;;;;;5014795;28;20449;-89
2021/12/12 01:44:08;;;;;;;4.03;3.63;;;6.00;99.90;;;;;;5017165;28;20498;-90
2021/12/12 01:46:41;;;;;;;7.20;3.17;;;6.00;99.90;;;;;;5031873;28;20488;-90
2021/12/12 01:49:18;;;;;;;9.53;4.20;;;6.00;99.90;;;;;;5024690;28;20444;-92
2021/12/12 01:51:53;;;;;;;9.30;3.90;;;6.00;99.90;;;;;;5019642;28;21347;-87
2021/12/12 01:54:26;;;;;;;7.33;3.60;;;5.90;99.90;;;;;;5023339;28;20500;-92
2021/12/12 01:56:59;;;;;;;6.53;3.67;;;5.80;99.90;;;;;;5026148;28;20469;-90
2021/12/12 01:59:32;;;;;;;4.93;3.60;;;5.70;99.90;;;;;;5021154;28;20465;-92
2021/12/12 02:02:15;;;;;;;4.33;3.93;;;5.70;99.90;;;;;;5013732;28;20516;-90
2021/12/12 02:04:49;;;;;;;2.40;2.20;;;5.60;99.90;;;;;;5013306;28;20528;-91
2021/12/12 02:07:24;;;;;;;4.97;3.10;;;5.60;99.90;;;;;;5017482;28;20765;-89
2021/12/12 02:09:52;;;;;;;5.40;3.23;;;5.50;99.90;;;;;;5020321;28;20461;-90
2021/12/12 02:12:22;;;;;;;5.60;3.97;;;5.40;99.90;;;;;;5016636;28;20461;-91
2021/12/12 02:14:51;;;;;;;5.33;3.33;;;5.60;99.90;;;;;;5031709;28;20508;-89
2021/12/12 02:17:39;;;;;;;5.73;3.57;;;5.50;99.90;;;;;;5018594;28;20566;-92
2021/12/12 02:20:22;;;;;;;6.40;4.00;;;5.60;99.90;;;;;;5031982;28;20984;-92
2021/12/12 02:23:02;;;;;;;9.43;4.10;;;5.50;99.90;;;;;;5022967;28;20489;-91
2021/12/12 02:36:41;;;;;;;4.93;3.77;;;5.60;99.90;;;;;;5029406;28;20477;-87
2021/12/12 02:39:15;;;;;;;5.90;3.50;;;5.70;99.90;;;;;;5036724;28;20505;-90
2021/12/12 02:42:00;;;;;;;5.80;3.53;;;5.50;99.90;;;;;;5038463;28;20452;-92
2021/12/12 02:44:31;;;;;;;9.50;4.13;;;5.80;99.90;;;;;;5024775;28;20478;-92
2021/12/12 02:47:01;;;;;;;6.40;4.00;;;5.70;99.90;;;;;;5038391;28;20576;-88
2021/12/12 02:49:54;;;;;;;6.20;3.67;;;5.60;99.90;;;;;;5026767;28;20487;-91
2021/12/12 02:52:29;;;;;;;8.37;4.40;;;5.70;99.90;;;;;;5029602;28;20451;-89
2021/12/12 02:55:00;;;;;;;4.47;3.20;;;5.70;99.90;;;;;;5026656;28;20486;-91
2021/12/12 02:57:28;;;;;;;4.03;3.30;;;5.80;99.90;;;;;;5041732;28;20545;-88
2021/12/12 02:59:55;;;;;;;3.60;3.30;;;5.70;99.90;;;;;;5045342;28;20473;-88
2021/12/12 03:02:29;;;;;;;5.70;4.07;;;5.70;99.90;;;;;;5031017;28;20484;-87
2021/12/12 03:05:00;;;;;;;4.37;3.80;;;5.70;99.90;;;;;;5038272;28;20879;-89
2021/12/12 03:07:37;;;;;;;4.30;3.47;;;5.70;99.90;;;;;;5029606;28;20528;-88
2021/12/12 03:10:07;;;;;;;5.33;3.63;;;5.80;99.90;;;;;;5028288;28;20469;-90
2021/12/12 03:12:36;;;;;;;7.93;4.13;;;5.70;99.90;;;;;;5043281;28;20461;-90
2021/12/12 03:15:27;;;;;;;6.60;3.90;;;5.70;99.90;;;;;;5029442;28;20483;-89
2021/12/12 03:17:58;;;;;;;6.77;4.00;;;5.80;99.90;;;;;;5022763;28;20469;-93
2021/12/12 03:20:39;;;;;;;10.63;3.80;;;5.70;99.90;;;;;;5015159;28;20474;-87
2021/12/12 03:23:16;;;;;;;7.33;3.80;;;5.80;99.90;;;;;;5036907;28;20473;-92
2021/12/12 03:25:45;;;;;;;5.70;3.70;;;5.80;99.90;;;;;;5023233;28;20632;-91
2021/12/12 03:28:16;;;;;;;7.93;3.40;;;5.70;99.90;;;;;;5034381;28;20472;-91
2021/12/12 03:30:45;;;;;;;6.80;3.93;;;5.90;99.90;;;;;;5040329;28;20464;-89
2021/12/12 03:33:12;;;;;;;6.07;4.20;;;5.90;99.90;;;;;;5022641;28;20457;-93
2021/12/12 03:35:39;;;;;;;6.30;4.33;;;5.90;99.90;;;;;;5040641;28;20484;-90
2021/12/12 03:38:07;;;;;;;5.73;3.70;;;5.90;99.90;;;;;;5037450;28;20521;-88
2021/12/12 03:40:38;;;;;;;10.63;4.20;;;5.80;99.90;;;;;;5026900;28;20573;-88
2021/12/12 03:43:07;;;;;;;4.53;3.83;;;5.80;99.90;;;;;;5028002;28;20449;-89
2021/12/12 03:45:35;;;;;;;8.53;3.90;;;5.90;99.90;;;;;;5028487;28;20496;-87
2021/12/12 03:48:28;;;;;;;4.43;3.90;;;5.80;99.90;;;;;;5023905;28;20442;-92
2021/12/12 03:50:59;;;;;;;6.67;3.93;;;5.90;99.90;;;;;;5024751;28;20457;-91
2021/12/12 03:53:27;;;;;;;6.93;3.93;;;5.90;99.90;;;;;;5028807;28;20563;-87
2021/12/12 03:55:56;;;;;;;7.53;4.83;;;6.00;99.90;;;;;;5038397;28;21047;-90
2021/12/12 03:58:25;;;;;;;7.40;3.93;;;5.90;99.90;;;;;;5022682;28;20458;-87
2021/12/12 04:01:36;;;;;;;7.33;4.53;;;5.90;99.90;;;;;;5034482;28;20468;-88
2021/12/12 04:04:19;;;;;;;6.10;3.30;;;5.90;99.90;;;;;;5011076;28;20484;-91
2021/12/12 04:06:48;;;;;;;5.53;4.43;;;5.90;99.90;;;;;;5043505;28;21111;-89
2021/12/12 04:09:17;;;;;;;9.70;4.80;;;6.00;99.90;;;;;;5041473;28;20458;-92
2021/12/12 04:11:51;;;;;;;6.73;5.10;;;6.00;99.90;;;;;;5029732;28;20555;-88
2021/12/12 04:14:20;;;;;;;7.17;4.40;;;6.00;99.90;;;;;;5026023;28;20453;-90
2021/12/12 04:16:54;;;;;;;7.80;4.30;;;5.90;99.90;;;;;;5047177;28;20476;-90
2021/12/12 04:19:22;;;;;;;8.23;3.50;;;6.00;99.90;;;;;;5022535;28;20553;-89
2021/12/12 04:21:49;;;;;;;8.20;3.53;;;6.10;99.90;;;;;;5023381;28;20453;-91
2021/12/12 04:24:30;;;;;;;7.83;5.10;;;6.10;99.90;;;;;;5030235;28;20495;-90
2021/12/12 04:26:58;;;;;;;5.87;4.13;;;6.10;99.90;;;;;;5018536;28;20450;-92
2021/12/12 04:29:32;;;;;;;10.23;4.20;;;6.10;99.90;;;;;;5028438;28;20533;-88
2021/12/12 04:32:12;;;;;;;14.43;5.00;;;6.20;99.90;;;;;;5028461;28;20461;-88
2021/12/12 04:35:06;;;;;;;10.20;3.90;;;6.10;99.90;;;;;;5043168;28;20551;-89
2021/12/12 04:37:58;;;;;;;7.13;4.23;;;6.20;99.90;;;;;;5028219;28;20512;-87
2021/12/12 04:40:28;;;;;;;9.33;4.73;;;6.10;99.90;;;;;;5050247;28;20510;-94
2021/12/12 04:42:57;;;;;;;9.10;4.53;;;6.10;99.90;;;;;;5044471;28;20475;-92
2021/12/12 04:45:50;;;;;;;8.73;3.90;;;6.20;99.90;;;;;;5043277;28;20515;-91
2021/12/12 04:51:48;;;;;;;8.93;4.70;;;6.20;99.90;;;;;;5026589;28;20472;-93
2021/12/12 04:54:33;;;;;;;9.20;3.70;;;6.20;99.90;;;;;;5022302;28;20470;-89
2021/12/12 04:57:17;;;;;;;11.53;4.23;;;6.20;99.90;;;;;;5021477;28;20476;-89
2021/12/12 05:00:04;;;;;;;8.03;4.87;;;6.20;99.90;;;;;;5021335;28;20460;-88
2021/12/12 05:02:55;;;;;;;6.97;4.87;;;6.20;99.90;;;;;;5013433;28;20488;-90
2021/12/12 05:05:33;;;;;;;10.60;4.50;;;6.20;99.90;;;;;;5008495;28;20968;-88
2021/12/12 05:08:15;;;;;;;7.00;4.63;;;6.20;99.90;;;;;;5024693;28;20455;-90
2021/12/12 05:11:05;;;;;;;12.53;5.27;;;6.30;99.90;;;;;;5021346;28;20453;-92
2021/12/12 05:13:37;;;;;;;6.67;4.27;;;6.10;99.90;;;;;;5025170;28;20450;-88
2021/12/12 05:16:13;;;;;;;8.63;5.17;;;6.30;99.90;;;;;;5023670;28;20482;-88
2021/12/12 05:18:49;;;;;;;10.23;4.87;;;6.00;99.90;;;;;;5022135;28;20475;-89
2021/12/12 05:21:25;;;;;;;6.00;4.20;;;6.00;99.90;;;;;;5039290;28;20977;-86
2021/12/12 05:27:13;;;;;;;7.20;4.10;;;6.20;99.90;;;;;;5021568;28;20465;-91
2021/12/12 05:29:45;;;;;;;6.50;3.57;;;6.30;99.90;;;;;;5022380;28;20463;-90
2021/12/12 05:32:13;;;;;;;11.30;4.27;;;6.30;99.90;;;;;;5032473;28;20573;-87
2021/12/12 05:34:44;;;;;;;6.83;4.30;;;6.20;99.90;;;;;;5035868;28;20482;-85
2021/12/12 05:37:12;;;;;;;8.20;4.63;;;6.20;99.90;;;;;;5037599;28;21978;-86
2021/12/12 05:39:39;;;;;;;6.03;4.10;;;6.10;99.90;;;;;;5022312;28;20476;-88
2021/12/12 05:42:07;;;;;;;6.43;4.10;;;6.20;99.90;;;;;;5024590;28;20469;-91
2021/12/12 05:44:34;;;;;;;5.10;3.43;;;6.10;99.90;;;;;;5022526;28;20492;-91
2021/12/12 05:47:04;;;;;;;7.07;4.67;;;6.00;99.90;;;;;;5034971;28;20470;-85
2021/12/12 05:49:32;;;;;;;9.53;4.20;;;6.00;99.90;;;;;;5019692;28;20472;-87
2021/12/12 05:52:00;;;;;;;6.77;4.53;;;6.00;99.90;;;;;;5024412;28;20492;-88
2021/12/12 05:54:28;;;;;;;11.40;5.17;;;5.90;99.90;;;;;;5021577;28;20481;-87
2021/12/12 05:56:58;;;;;;;6.50;4.20;;;6.00;99.90;;;;;;5022993;28;20477;-91
2021/12/12 05:59:25;;;;;;;12.57;5.63;;;5.90;99.90;;;;;;5020493;28;20471;-89
2021/12/12 06:01:52;;;;;;;13.67;5.80;;;5.90;99.90;;;;;;5011147;28;21039;-89
2021/12/12 06:04:19;;;;;;;13.57;5.80;;;6.00;99.90;;;;;;5021238;28;20543;-89
2021/12/12 06:06:47;;;;;;;11.70;5.17;;;6.10;99.90;;;;;;5000059;28;20454;-86
2021/12/12 06:09:17;;;;;;;8.57;5.77;;;6.10;99.90;;;;;;5013744;28;20459;-90
2021/12/12 06:11:47;;;;;;;7.43;4.30;;;6.10;99.90;;;;;;5034725;28;20819;-90
2021/12/12 06:14:14;;;;;;;13.37;5.90;;;6.10;99.90;;;;;;5020229;28;20464;-87
2021/12/12 06:16:42;;;;;;;7.27;5.03;;;6.00;99.90;;;;;;5036199;28;20453;-89
2021/12/12 06:19:16;;;;;;;7.53;4.93;;;6.00;99.90;;;;;;5028801;28;20472;-88
2021/12/12 06:21:52;;;;;;;7.47;4.53;;;5.90;99.90;;;;;;5029741;28;20453;-90
2021/12/12 06:24:31;;;;;;;7.40;4.20;;;6.10;99.90;;;;;;5038357;28;20547;-89
2021/12/12 06:27:08;;;;;;;8.37;5.33;;;6.00;99.90;;;;;;5043295;28;20462;-86
2021/12/12 06:29:44;;;;;;;13.50;4.70;;;5.90;99.90;;;;;;5023144;28;21027;-88
2021/12/12 06:32:17;;;;;;;7.90;4.63;;;6.10;99.90;;;;;;5037426;28;20474;-91
2021/12/12 06:34:59;;;;;;;6.43;4.40;;;5.90;99.90;;;;;;5043060;28;20508;-90
2021/12/12 06:37:26;;;;;;;6.70;5.07;;;6.00;99.90;;;;;;5041651;28;20559;-91
2021/12/12 06:40:07;;;;;;;7.40;4.60;;;6.20;99.90;;;;;;5036332;28;20471;-88
2021/12/12 06:42:37;;;;;;;9.53;5.37;;;6.20;99.90;;;;;;5026407;28;20531;-90
2021/12/12 06:45:24;;;;;;;9.27;4.67;;;6.30;99.90;;;;;;5036125;28;20500;-86
2021/12/12 06:48:09;;;;;;;10.23;5.13;;;6.30;99.90;;;;;;5016609;28;20473;-87
2021/12/12 06:51:08;;;;;;;9.40;5.17;;;6.00;99.90;;;;;;5027518;28;21038;-87
2021/12/12 06:54:01;;;;;;;8.03;5.73;;;6.10;99.90;;;;;;5031752;28;20574;-90
2021/12/12 06:56:39;;;;;;;11.20;5.57;;;6.20;99.90;;;;;;5022872;28;20479;-86
2021/12/12 06:59:10;;;;;;;10.47;5.33;;;6.30;99.90;;;;;;5022019;28;20473;-86
2021/12/12 07:02:03;;;;;;;6.77;5.30;;;6.10;99.90;;;;;;5012139;28;20464;-89
2021/12/12 07:08:26;;;;;;;6.93;4.50;;;6.30;99.90;;;;;;5023429;28;20541;-91
2021/12/12 07:10:53;;;;;;;7.27;4.40;;;6.30;99.90;;;;;;5023779;28;22068;-90
2021/12/12 07:13:35;;;;;;;9.10;5.00;;;6.50;99.90;;;;;;5052572;28;21288;-91
2021/12/12 07:16:20;;;;;;;5.63;3.90;;;6.40;99.90;;;;;;5030034;28;20582;-90
2021/12/12 07:19:21;;;;;;;7.03;4.37;;;6.40;99.90;;;;;;5033015;28;20481;-89
2021/12/12 07:25:03;;;;;;;8.03;4.40;;;6.50;99.90;;;;;;5022468;28;20524;-86
2021/12/12 07:28:15;;;;;;;6.67;3.80;;;6.30;99.90;;;;;;5037789;28;20459;-88
2021/12/12 07:31:06;;;;;;;5.40;4.50;;;6.20;99.90;;;;;;5041560;28;20497;-90
2021/12/12 07:33:35;;;;;;;8.50;3.80;;;6.30;99.90;;;;;;5013419;28;20465;-91
2021/12/12 07:36:20;;;;;;;7.93;3.40;;;6.30;99.90;;;;;;5037388;28;20483;-91
2021/12/12 07:39:07;;;;;;;3.83;3.10;;;6.50;99.90;;;;;;5035082;28;20471;-86
2021/12/12 07:41:36;;;;;;;7.20;4.63;;;6.60;99.90;;;;;;5037187;28;20458;-87
2021/12/12 07:44:44;;;;;;;8.43;4.37;;;6.70;99.90;;;;;;5022468;28;21141;-89
2021/12/12 07:47:19;;;;;;;8.47;3.90;;;6.70;99.90;;;;;;5037614;28;22334;-89
2021/12/12 07:49:50;;;;;;;7.50;4.47;;;6.80;99.90;;;;;;5024133;28;21543;-86
2021/12/12 07:52:29;;;;;;;7.43;4.93;;;6.70;99.90;;;;;;5043971;28;20458;-89
2021/12/12 07:55:06;;;;;;;7.27;4.20;;;6.70;99.90;;;;;;5024823;28;20474;-89
2021/12/12 07:58:17;;;;;;;5.90;4.77;;;6.70;99.90;;;;;;5020025;28;20531;-88
2021/12/12 08:05:08;;;;;;;6.43;4.20;;;6.80;99.90;;;;;;4969208;28;20514;-89
2021/12/12 08:07:50;;;;;;;7.27;4.40;;;6.80;99.90;;;;;;5035678;28;20461;-87
2021/12/12 08:10:32;;;;;;;8.40;3.90;;;6.80;99.90;;;;;;5017696;28;20476;-87
2021/12/12 08:13:05;;;;;;;5.87;3.63;;;6.90;99.90;;;;;;5025269;28;20459;-91
2021/12/12 08:15:32;;;;;;;9.97;4.13;;;7.00;99.90;;;;;;5045552;22;20500;-89
2021/12/12 08:18:03;;;;;;;4.60;4.20;;;7.10;99.90;;;;;;5013313;28;20472;-89
2021/12/12 08:20:59;;;;;;;6.17;4.00;;;7.10;99.90;;;;;;5030682;28;20477;-87
2021/12/12 08:23:49;;;;;;;6.40;4.50;;;7.00;99.90;;;;;;5034818;28;20467;-93
2021/12/12 08:26:31;;;;;;;5.10;3.57;;;7.00;99.90;;;;;;5034259;28;20497;-89
2021/12/12 08:29:20;;;;;;;5.60;4.30;;;7.00;99.90;;;;;;5053500;28;20456;-93
2021/12/12 08:31:54;;;;;;;6.33;4.47;;;6.90;99.90;;;;;;5032321;28;20497;-89
2021/12/12 08:34:36;;;;;;;4.07;3.60;;;6.80;99.90;;;;;;5049580;28;20512;-91
2021/12/12 08:37:11;;;;;;;5.73;3.60;;;7.00;99.90;;;;;;5046977;28;20465;-91
2021/12/12 08:39:41;;;;;;;4.80;3.80;;;6.90;99.90;;;;;;5030136;28;20459;-88
2021/12/12 08:42:46;;;;;;;4.73;2.80;;;6.90;99.90;;;;;;5035724;28;20471;-88
2021/12/12 08:45:19;;;;;;;4.50;3.47;;;7.10;99.90;;;;;;5046600;28;20856;-87
2021/12/12 08:50:41;;;;;;;5.00;3.00;;;7.00;99.90;;;;;;5023630;28;20460;-88
2021/12/12 08:53:11;;;;;;;6.57;3.47;;;7.00;99.90;;;;;;5022123;28;20472;-88
2021/12/12 08:56:18;;;;;;;3.10;2.60;;;7.20;99.90;;;;;;5025025;28;20494;-88
2021/12/12 08:59:00;;;;;;;4.20;3.63;;;7.30;99.90;;;;;;5024731;28;20470;-87
2021/12/12 09:01:27;;;;;;;4.10;3.40;;;7.40;99.90;;;;;;5024730;28;20586;-87
2021/12/12 09:04:43;;;;;;;4.00;3.13;;;7.50;99.90;;;;;;5028980;28;20474;-87
2021/12/12 09:07:27;;;;;;;5.57;4.37;;;7.40;99.90;;;;;;5026176;28;20477;-88
2021/12/12 09:10:17;;;;;;;4.27;3.17;;;7.30;99.90;;;;;;5024936;28;20465;-87
2021/12/12 09:13:04;;;;;;;7.03;3.27;;;7.40;99.90;;;;;;5026895;28;20520;-90
2021/12/12 09:16:06;;;;;;;4.30;2.23;;;7.50;99.90;;;;;;5024617;28;20514;-88
2021/12/12 09:19:38;;;;;;;4.00;3.13;;;7.50;99.90;;;;;;5041833;28;20449;-88
2021/12/12 09:22:32;;;;;;;3.70;2.60;;;7.40;99.90;;;;;;5029676;28;20519;-87
2021/12/12 09:25:02;;;;;;;4.50;3.17;;;7.50;99.90;;;;;;5033982;28;20483;-87
2021/12/12 09:28:07;;;;;;;3.60;2.87;;;7.60;99.90;;;;;;5048810;28;20519;-90
2021/12/12 09:30:38;;;;;;;4.80;2.73;;;7.40;99.90;;;;;;5029769;28;20994;-86
2021/12/12 09:33:37;;;;;;;6.57;3.60;;;7.40;99.90;;;;;;5026833;28;20460;-88
2021/12/12 09:36:12;;;;;;;4.80;2.93;;;7.50;99.90;;;;;;5026321;28;20485;-93
2021/12/12 09:39:52;;;;;;;3.67;3.07;;;7.50;99.90;;;;;;5031186;28;20531;-92
2021/12/12 09:42:59;;;;;;;3.90;3.30;;;7.60;99.90;;;;;;5017983;28;20466;-88
2021/12/12 09:46:06;;;;;;;3.77;2.93;;;7.70;99.90;;;;;;5003851;28;20499;-90
2021/12/12 09:53:10;;;;;;;5.83;3.50;;;7.60;99.90;;;;;;5028109;28;20459;-90
2021/12/12 09:55:51;;;;;;;4.13;3.50;;;7.80;99.90;;;;;;5050279;28;20509;-91
2021/12/12 09:59:02;;;;;;;5.40;3.53;;;7.90;99.90;;;;;;5041884;28;20467;-87
2021/12/12 10:02:02;;;;;;;5.20;3.30;;;7.90;99.90;;;;;;5017085;28;20484;-88
2021/12/12 10:05:11;;;;;;;4.87;4.30;;;7.90;99.90;;;;;;5026080;28;20524;-88
2021/12/12 10:08:13;;;;;;;5.30;4.37;;;7.90;99.90;;;;;;5025247;28;20581;-89
2021/12/12 10:11:09;;;;;;;5.67;3.27;;;7.70;99.90;;;;;;5029653;28;20514;-88
2021/12/12 10:13:47;;;;;;;3.37;2.90;;;7.80;99.90;;;;;;5039941;28;20462;-90
2021/12/12 10:17:03;;;;;;;3.90;2.77;;;8.00;99.90;;;;;;5025019;28;20489;-90
2021/12/12 10:20:00;;;;;;;4.30;2.67;;;8.00;99.90;;;;;;5029809;28;20504;-90
2021/12/12 10:22:47;;;;;;;3.00;2.70;;;7.90;99.90;;;;;;5045882;28;20442;-88
2021/12/12 10:26:03;;;;;;;4.30;1.90;;;7.90;99.90;;;;;;5026742;28;20480;-88
2021/12/12 10:29:42;;;;;;;2.73;2.20;;;8.00;99.90;;;;;;5023861;28;20468;-87
2021/12/12 10:39:37;;;;;;;3.00;2.10;;;8.00;99.90;;;;;;5030876;26;20478;-88
2021/12/12 10:43:15;;;;;;;2.50;1.70;;;8.10;99.90;;;;;;5020531;28;20500;-88
2021/12/12 10:47:46;;;;;;;2.70;2.00;;;8.00;99.90;;;;;;4977809;28;20470;-90
2021/12/12 10:50:21;;;;;;;3.03;2.07;;;8.20;99.90;;;;;;5004315;28;20547;-89
2021/12/12 10:57:39;;;;;;;;;;;;;;;;;;;;;
2021/12/12 11:45:58;;;;;;;2.27;1.57;;;8.60;99.90;;;;;;5178884;22;20936;-89
2021/12/12 11:49:18;;;;;;;2.27;2.17;;;8.70;99.90;;;;;;5066729;28;20496;-89
2021/12/12 11:52:26;;;;;;;1.83;1.73;;;8.60;99.90;;;;;;5079921;28;20468;-88
2021/12/12 11:55:40;;;;;;;;;;;;;;;;;;;;;
2021/12/12 11:59:16;;;;;;;3.00;2.20;;;8.70;99.90;;;;;;4991964;28;20463;-87
2021/12/12 12:05:12;;;;;;;1.87;1.77;;;8.60;99.90;;;;;;4991652;28;20472;-92
2021/12/12 12:08:19;;;;;;;2.87;2.67;;;8.70;99.90;;;;;;4981626;28;20893;-90
2021/12/12 12:11:36;;;;;;;2.87;2.57;;;8.70;99.90;;;;;;4956503;28;20532;-90
2021/12/12 12:14:59;;;;;;;3.53;3.00;;;8.80;99.90;;;;;;4961814;28;20464;-89
2021/12/12 12:18:30;;;;;;;;;;;;;;;;;;;;;
2021/12/12 12:28:07;;;;;;;4.33;2.60;;;9.00;99.90;;;;;;5042715;28;20585;-88
2021/12/12 12:31:26;;;;;;;5.33;2.50;;;9.10;99.90;;;;;;5059083;28;21272;-90
2021/12/12 12:34:24;;;;;;;3.43;2.40;;;9.00;99.90;;;;;;5038830;28;20453;-91
2021/12/12 12:37:43;;;;;;;2.60;1.97;;;9.00;99.90;;;;;;5038789;28;20454;-89
2021/12/12 12:44:51;;;;;;;2.40;2.20;;;9.00;99.90;;;;;;4998070;28;20536;-89
2021/12/12 12:48:33;;;;;;;4.10;2.50;;;9.00;99.90;;;;;;4993705;28;21910;-88
2021/12/12 12:52:17;;;;;;;4.80;3.00;;;9.10;99.90;;;;;;4976945;28;20480;-88
2021/12/12 13:00:34;;;;;;;3.03;2.73;;;9.30;99.90;;;;;;5042258;28;20607;-91
2021/12/12 13:03:16;;;;;;;2.73;2.30;;;9.20;99.90;;;;;;5041777;28;20461;-87
2021/12/12 13:06:27;;;;;;;3.10;2.43;;;9.20;99.90;;;;;;5056778;28;20487;-87
2021/12/12 13:09:21;;;;;;;2.70;2.50;;;9.30;99.90;;;;;;5068442;28;20516;-92
2021/12/12 13:12:26;;;;;;;3.20;2.30;;;9.40;99.90;;;;;;5065735;28;20595;-92
2021/12/12 13:22:16;;;;;;;2.30;2.10;;;9.50;99.90;;;;;;5192725;22;20496;-93
2021/12/12 13:25:05;;;;;;;4.80;2.20;;;9.50;99.90;;;;;;5081719;28;20459;-93
2021/12/12 13:28:05;;;;;;;2.30;2.03;;;9.60;99.90;;;;;;5050748;28;20489;-91
2021/12/12 13:31:00;;;;;;;2.23;2.03;;;9.60;99.90;;;;;;5149972;22;20487;-90
2021/12/12 13:33:44;;;;;;;2.37;2.00;;;9.70;99.90;;;;;;5059940;28;20942;-91
2021/12/12 13:36:40;;;;;;;2.63;1.60;;;9.60;99.90;;;;;;5060041;28;20499;-88
2021/12/12 13:39:21;;;;;;;2.40;1.70;;;9.30;99.90;;;;;;5060250;28;20579;-93
2021/12/12 13:42:15;;;;;;;3.47;1.93;;;9.70;99.90;;;;;;5073212;28;21290;-89
2021/12/12 13:45:34;;;;;;;2.00;1.83;;;9.50;99.90;;;;;;5072120;28;20468;-90
2021/12/12 13:48:35;;;;;;;2.47;1.80;;;9.70;99.90;;;;;;5055464;28;21793;-91
2021/12/12 13:51:47;;;;;;;2.90;1.90;;;9.60;99.90;;;;;;5056671;28;20448;-87
2021/12/12 13:54:59;;;;;;;2.90;1.80;;;9.80;99.90;;;;;;5059519;28;20437;-88
2021/12/12 13:58:06;;;;;;;3.43;2.60;;;9.80;99.90;;;;;;5056275;28;20495;-89
2021/12/12 14:05:08;;;;;;;4.63;2.43;;;9.80;99.90;;;;;;4997902;28;20605;-90
2021/12/12 14:08:39;;;;;;;4.30;2.63;;;9.80;99.90;;;;;;5041621;28;20511;-87
2021/12/12 14:11:16;;;;;;;4.43;4.03;;;10.00;99.90;;;;;;5037619;28;20579;-88
2021/12/12 14:13:48;;;;;;;5.73;5.17;;;10.00;99.90;;;;;;5054958;28;20542;-89
2021/12/12 14:17:08;;;;;;;5.23;4.73;;;10.00;99.90;;;;;;5056623;28;20596;-89
2021/12/12 14:23:14;;;;;;;6.23;5.30;;;9.90;99.90;;;;;;5023206;28;20455;-90
2021/12/12 14:25:44;;;;;;;4.00;3.60;;;9.70;99.90;;;;;;5039790;28;21678;-90
2021/12/12 14:28:27;;;;;;;4.63;3.70;;;9.70;99.90;;;;;;5053648;28;20440;-86
2021/12/12 14:30:58;;;;;;;3.53;3.23;;;9.70;99.90;;;;;;5051364;28;20449;-89
2021/12/12 14:33:30;;;;;;;4.30;3.30;;;9.80;99.90;;;;;;5053566;28;20537;-87
2021/12/12 14:36:22;;;;;;;3.70;2.83;;;9.80;99.90;;;;;;5054716;28;20469;-86
2021/12/12 14:38:53;;;;;;;4.07;2.80;;;9.90;99.90;;;;;;5054082;28;20459;-92
2021/12/12 14:45:22;;;;;;;3.63;2.90;;;9.90;99.90;;;;;;5053256;28;20491;-87
2021/12/12 14:48:03;;;;;;;4.13;3.23;;;9.80;99.90;;;;;;5050589;28;20552;-89
2021/12/12 14:54:14;;;;;;;3.10;2.67;;;9.90;99.90;;;;;;5051087;28;20441;-92
2021/12/12 14:57:12;;;;;;;2.10;1.70;;;9.90;99.90;;;;;;5054889;28;20476;-90
2021/12/12 15:00:02;;;;;;;2.40;2.20;;;10.00;99.90;;;;;;5036399;28;20452;-90
2021/12/12 15:03:22;;;;;;;4.13;2.17;;;9.80;99.90;;;;;;5055508;28;20464;-88
2021/12/12 15:08:46;;;;;;;1.90;1.70;;;10.00;99.90;;;;;;5077335;22;21371;-88
2021/12/12 15:11:51;;;;;;;4.53;2.30;;;10.10;99.90;;;;;;5039867;28;20442;-88
2021/12/12 15:14:40;;;;;;;1.80;1.70;;;10.10;99.90;;;;;;5041455;28;20826;-91
2021/12/12 15:17:58;;;;;;;2.57;1.67;;;10.00;99.90;;;;;;5023334;28;20446;-89
2021/12/12 15:21:13;;;;;;;;;;;;;;;;;;;;;
2021/12/12 15:44:24;;;;;;;3.47;2.73;;;10.10;99.90;;;;;;4921819;29;20435;-91
2021/12/12 16:30:43;;;;;;;4.47;3.90;;;10.10;99.90;;;;;;5041444;28;20445;-91
2021/12/12 16:52:38;;;;;;;5.73;5.23;;;9.90;99.90;;;;;;5013797;28;20417;-88
2021/12/12 16:59:07;;;;;;;9.13;5.80;;;9.90;99.90;;;;;;5023658;28;20487;-88
2021/12/12 17:02:01;;;;;;;7.37;6.67;;;9.90;99.90;;;;;;5013976;28;20485;-92
2021/12/12 17:14:20;;;;;;;6.20;5.60;;;9.80;99.90;;;;;;5113094;28;20401;-90
2021/12/12 17:17:12;;;;;;;7.00;5.20;;;9.80;99.90;;;;;;5077367;28;20519;-91
2021/12/12 17:23:41;;;;;;;8.23;6.53;;;10.00;99.90;;;;;;5084916;28;20399;-88
2021/12/12 17:29:30;;;;;;;6.20;5.60;;;9.90;99.90;;;;;;5282775;22;20516;-91
2021/12/12 17:36:04;;;;;;;6.50;5.90;;;9.70;99.90;;;;;;5131245;27;20494;-89
2021/12/12 17:39:28;;;;;;;7.10;5.80;;;9.60;99.90;;;;;;5100733;27;20450;-89
2021/12/12 17:42:56;;;;;;;8.60;6.90;;;9.80;99.90;;;;;;5109039;27;20458;-88
2021/12/12 17:45:59;;;;;;;6.33;5.77;;;9.90;99.90;;;;;;5106022;27;20464;-87
2021/12/12 17:48:53;;;;;;;7.60;6.87;;;9.80;99.90;;;;;;5105325;27;20480;-87
2021/12/12 17:51:36;;;;;;;8.93;6.10;;;9.90;99.90;;;;;;5109560;27;20489;-91
2021/12/12 17:54:22;;;;;;;6.70;6.00;;;9.90;99.90;;;;;;5109462;27;20454;-88
2021/12/12 17:57:25;;;;;;;7.60;6.40;;;9.70;99.90;;;;;;5114915;27;20425;-88
2021/12/12 18:00:00;;;;;;;6.40;5.80;;;9.80;99.90;;;;;;5104141;27;20438;-85
2021/12/12 18:03:13;;;;;;;6.50;5.90;;;9.80;99.90;;;;;;5115277;27;20421;-87
2021/12/12 18:05:57;;;;;;;7.00;6.40;;;9.80;99.90;;;;;;5123600;27;20472;-91
2021/12/12 18:08:52;;;;;;;7.47;6.30;;;9.80;99.90;;;;;;5106974;27;20455;-90
2021/12/12 18:11:23;;;;;;;17.00;9.93;;;9.90;99.90;;;;;;5123264;27;20450;-87
2021/12/12 18:14:07;;;;;;;8.40;7.50;;;9.70;99.90;;;;;;5105567;27;20425;-88
2021/12/12 18:16:58;;;;;;;7.23;6.30;;;9.80;99.90;;;;;;5105295;27;21010;-88
2021/12/12 18:19:42;;;;;;;9.47;5.93;;;9.80;99.90;;;;;;5079695;28;20460;-89
2021/12/12 18:22:49;;;;;;;7.47;6.77;;;9.80;99.90;;;;;;5108885;27;20954;-88
2021/12/12 18:25:45;;;;;;;6.43;5.80;;;9.80;99.90;;;;;;5107766;27;20560;-87
2021/12/12 18:28:42;;;;;;;6.20;5.70;;;9.60;99.90;;;;;;5127338;27;20509;-88
2021/12/12 18:31:17;;;;;;;7.20;6.50;;;9.40;99.90;;;;;;5112440;27;20442;-90
2021/12/12 18:34:03;;;;;;;6.03;5.47;;;9.30;99.90;;;;;;5116398;27;20428;-93
2021/12/12 18:36:40;;;;;;;5.83;5.33;;;9.30;99.90;;;;;;5121339;27;20467;-91
2021/12/12 18:39:19;;;;;;;6.37;5.00;;;9.30;99.90;;;;;;5218635;22;20662;-88
2021/12/12 18:45:38;;;;;;;5.83;5.10;;;9.50;99.90;;;;;;5092431;28;20438;-91